Flight Track Log - Related Links

Times and Time Zones

All times are in EDT time to prevent confusion due to time zone crossing. See the SKW4708 flight status page for this flight to view local times or setup timezone preferences in your user account.

Time Position Orientation Groundspeed Altitude Reporting Facility
EDT Latitude Longitude Course Direction KTS MPH feet Rate Location/Type
Wed 06:42:01 PM 44.8833 -93.1333 270° West 176 203 3,300  Level Minneapolis TRACON
Wed 06:42:59 PM 44.8917 -93.0711 79° East 224 258 5,000 2,150 Climbing Minneapolis Center
Wed 06:44:00 PM 44.9184 -93.8073 276° West  Level FlightAware Approximate
Wed 06:44:01 PM 44.9856 -93.0572 North 289 333 7,600  Level Minneapolis Center
Wed 06:45:00 PM 44.9291 -93.9562 276° West  Level FlightAware Approximate
Wed 06:45:03 PM 45.0233 -93.1369 304° West 257 296 9,900  Level Minneapolis Center
Wed 06:46:00 PM 44.9333 -94.1056 270° West  Level FlightAware Approximate
Wed 06:46:05 PM 45.0169 -93.2431 265° West 274 315 12,200  Level Minneapolis Center
Wed 06:47:00 PM 44.9334 -94.2552 270° West  Level FlightAware Approximate
Wed 06:47:06 PM 45.0061 -93.3581 262° West 299 344 13,700  Level Minneapolis Center
Wed 06:48:08 PM 44.9936 -93.4886 262° West 335 386 15,800 2,613 Climbing Minneapolis Center
Wed 06:49:10 PM 44.9758 -93.6494 261° West 348 400 19,100 2,274 Climbing Minneapolis Center
Wed 06:50:12 PM 44.9611 -93.7844 261° West 348 400 20,500 1,548 Climbing Minneapolis Center
Wed 06:51:14 PM 44.9453 -93.9247 261° West 361 415 22,300 1,742 Climbing Minneapolis Center
Wed 06:52:16 PM 44.9375 -94.0667 266° West 364 419 24,100 1,548 Climbing Minneapolis Center
Wed 06:53:18 PM 44.9439 -94.2136 274° West 373 429 25,500 919 Climbing Minneapolis Center
Wed 06:54:20 PM 44.9489 -94.3633 273° West 379 436 26,000 242 Climbing Minneapolis Center
Wed 06:55:22 PM 44.9561 -94.5544 273° West 406 467 26,000  Level Minneapolis Center
Wed 06:56:24 PM 44.9625 -94.6989 274° West 410 472 26,000 581 Level Minneapolis Center
Wed 06:57:26 PM 44.9700 -94.8939 273° West 412 474 27,200 968 Climbing Minneapolis Center
Wed 06:58:28 PM 44.9761 -95.0558 273° West 412 474 28,000 387 Climbing Minneapolis Center
Wed 06:59:30 PM 44.9806 -95.2147 272° West 412 474 28,000 435 Level Minneapolis Center
Wed 07:00:32 PM 44.9867 -95.3767 273° West 412 474 28,900 1,161 Climbing Minneapolis Center
Wed 07:01:34 PM 44.9917 -95.5375 273° West 412 474 30,400 1,500 Climbing Minneapolis Center
Wed 07:02:36 PM 44.9981 -95.7247 273° West 405 466 32,000 768 Climbing Minneapolis Center
Wed 07:03:39 PM 45.0022 -95.8817 272° West 404 465 32,000  Level Minneapolis Center
Wed 07:04:41 PM 45.0064 -96.0408 272° West 406 467 32,000  Level Minneapolis Center
Wed 07:05:43 PM 45.0244 -96.1972 279° West 409 471 32,000  Level Minneapolis Center
Wed 07:06:45 PM 45.0508 -96.3544 283° West 410 472 32,000 645 Level Minneapolis Center
Wed 07:08:49 PM 45.1081 -96.6919 283° West 404 465 34,000 645 Climbing Minneapolis Center
Wed 07:09:51 PM 45.1333 -96.8461 283° West 404 465 34,000  Level Minneapolis Center
Wed 07:10:53 PM 45.1594 -97.0011 283° West 404 465 34,000  Level Minneapolis Center
Wed 07:11:55 PM 45.1847 -97.1581 283° West 407 468 34,000  Level Minneapolis Center
Wed 07:13:59 PM 45.2414 -97.4972 283° West 406 467 34,000  Level Minneapolis Center
Wed 07:15:01 PM 45.2647 -97.6508 282° West 405 466 34,000  Level Minneapolis Center
Wed 07:16:03 PM 45.2894 -97.8014 283° West 398 458 34,000  Level Minneapolis Center
Wed 07:17:06 PM 45.3136 -97.9547 283° West 396 456 34,000  Level Minneapolis Center
Wed 07:18:08 PM 45.3389 -98.1178 282° West 396 456 34,000  Level Minneapolis Center
Wed 07:19:10 PM 45.3625 -98.2692 283° West 396 456 34,000  Level Minneapolis Center
Wed 07:20:12 PM 45.3850 -98.4217 282° West 396 456 34,000  Level Minneapolis Center
Wed 07:21:14 PM 45.4075 -98.5750 282° West 396 456 34,000  Level Minneapolis Center
Wed 07:22:16 PM 45.4361 -98.7567 283° West 396 456 34,000  Level Minneapolis Center
Wed 07:23:18 PM 45.4581 -98.9086 282° West 396 456 34,000  Level Minneapolis Center
Wed 07:24:20 PM 45.4808 -99.0600 282° West 396 456 34,000  Level Minneapolis Center
Wed 07:25:22 PM 45.5028 -99.2111 282° West 395 455 34,000  Level Minneapolis Center
Wed 07:26:24 PM 45.5253 -99.3619 282° West 395 455 34,000  Level Minneapolis Center
Wed 07:27:25 PM 45.5506 -99.5414 281° West 392 451 34,000  Level Minneapolis Center
Wed 07:28:27 PM 45.5722 -99.6914 282° West 392 451 34,000  Level Minneapolis Center
Wed 07:29:29 PM 45.5933 -99.8411 281° West 391 450 34,000  Level Minneapolis Center
Wed 07:30:31 PM 45.6139 -99.9906 281° West 391 450 34,000  Level Minneapolis Center
Wed 07:31:33 PM 45.6336 -100.1400 281° West 389 448 34,000  Level Minneapolis Center
Wed 07:32:35 PM 45.6589 -100.3194 281° West 389 448 34,000  Level Minneapolis Center
Wed 07:33:37 PM 45.6789 -100.4703 281° West 388 447 34,000  Level Minneapolis Center
Wed 07:34:39 PM 45.6983 -100.6197 281° West 388 447 34,000  Level Minneapolis Center
Wed 07:35:40 PM 45.7186 -100.7692 281° West 388 447 34,000  Level Minneapolis Center
Wed 07:36:42 PM 45.7372 -100.9192 280° West 387 445 34,000  Level Minneapolis Center
Wed 07:37:44 PM 45.7569 -101.0694 281° West 387 445 34,000  Level Minneapolis Center
Wed 07:38:46 PM 45.7806 -101.2514 281° West 387 445 34,000  Level Minneapolis Center
Wed 07:39:48 PM 45.7992 -101.4019 280° West 387 445 34,000  Level Minneapolis Center
Wed 07:40:49 PM 45.8175 -101.5528 280° West 387 445 34,000  Level Minneapolis Center
Wed 07:41:51 PM 45.8364 -101.7028 280° West 387 445 34,000  Level Minneapolis Center
Wed 07:42:53 PM 45.8547 -101.8528 280° West 386 444 34,000  Level Minneapolis Center
Wed 07:43:55 PM 45.8733 -102.0028 280° West 386 444 34,000  Level Minneapolis Center
Wed 07:44:57 PM 45.8897 -102.1525 279° West 386 444 34,000  Level Minneapolis Center
Wed 07:45:59 PM 45.9108 -102.3306 280° West 382 440 34,000  Level Minneapolis Center
Wed 07:47:00 PM 45.9286 -102.4786 280° West 381 438 34,000  Level Minneapolis Center
Wed 07:48:02 PM 45.9450 -102.6286 279° West 381 438 34,000  Level Minneapolis Center
Wed 07:49:04 PM 45.9622 -102.7844 279° West 381 438 34,000  Level Minneapolis Center
Wed 07:50:06 PM 45.9794 -102.9322 280° West 381 438 34,000  Level Minneapolis Center
Wed 07:51:08 PM 45.9961 -103.0808 279° West 381 438 34,000  Level Minneapolis Center
Wed 07:51:39 PM 46.0036 -103.1694 277° West 381 438 34,000  Level Salt Lake Center
Wed 07:52:41 PM 46.0194 -103.3183 279° West 381 438 34,000  Level Salt Lake Center
Wed 07:53:43 PM 46.0344 -103.4692 278° West 381 438 34,000  Level Salt Lake Center
Wed 07:54:45 PM 46.0508 -103.6189 279° West 381 438 34,000  Level Salt Lake Center
Wed 07:55:47 PM 46.0664 -103.7692 279° West 381 438 34,000  Level Salt Lake Center
Wed 07:56:48 PM 46.0817 -103.9206 278° West 381 438 34,000  Level Salt Lake Center
Wed 07:57:50 PM 46.0994 -104.1022 278° West 381 438 34,000  Level Salt Lake Center
Wed 07:58:52 PM 46.1144 -104.2536 278° West 381 438 34,000  Level Salt Lake Center
Wed 07:59:54 PM 46.1286 -104.4083 278° West 382 440 34,000  Level Salt Lake Center
Wed 08:00:56 PM 46.1431 -104.5619 278° West 382 440 34,000  Level Salt Lake Center
Wed 08:01:57 PM 46.1558 -104.7131 277° West 382 440 34,000  Level Salt Lake Center
Wed 08:02:59 PM 46.1683 -104.8653 277° West 382 440 34,000  Level Salt Lake Center
Wed 08:04:01 PM 46.1831 -105.0197 278° West 383 441 34,000  Level Salt Lake Center
Wed 08:05:03 PM 46.2008 -105.2044 278° West 384 442 34,000  Level Salt Lake Center
Wed 08:06:05 PM 46.2144 -105.3583 277° West 385 443 34,000  Level Salt Lake Center
Wed 08:07:06 PM 46.2283 -105.5131 277° West 385 443 34,000  Level Salt Lake Center
Wed 08:08:08 PM 46.2436 -105.6678 278° West 385 443 34,000  Level Salt Lake Center
Wed 08:09:10 PM 46.2564 -105.8239 277° West 388 447 34,000  Level Salt Lake Center
Wed 08:10:11 PM 46.2700 -105.9800 277° West 388 447 34,000  Level Salt Lake Center
Wed 08:11:13 PM 46.2864 -106.1694 277° West 392 451 34,000  Level Salt Lake Center
Wed 08:12:15 PM 46.2989 -106.3250 277° West 392 451 34,000  Level Salt Lake Center
Wed 08:13:17 PM 46.3128 -106.4822 277° West 392 451 34,000  Level Salt Lake Center
Wed 08:14:18 PM 46.3247 -106.6381 276° West 393 452 34,000  Level Salt Lake Center
Wed 08:15:20 PM 46.3350 -106.7925 276° West 392 451 34,000  Level Salt Lake Center
Wed 08:16:22 PM 46.3478 -106.9494 277° West 392 451 34,000  Level Salt Lake Center
Wed 08:17:24 PM 46.3592 -107.1058 276° West 393 452 34,000  Level Salt Lake Center
Wed 08:18:25 PM 46.3725 -107.2944 276° West 393 452 34,000  Level Salt Lake Center
Wed 08:19:27 PM 46.3822 -107.4486 275° West 390 449 34,000  Level Salt Lake Center
Wed 08:20:29 PM 46.3931 -107.6058 276° West 391 450 34,000  Level Salt Lake Center
Wed 08:21:31 PM 46.4036 -107.7628 276° West 392 451 34,000  Level Salt Lake Center
Wed 08:22:32 PM 46.4142 -107.9206 276° West 392 451 34,000  Level Salt Lake Center
Wed 08:23:34 PM 46.4242 -108.0806 275° West 396 456 34,000  Level Salt Lake Center
Wed 08:24:36 PM 46.4369 -108.2672 276° West 394 453 34,000  Level Salt Lake Center
Wed 08:25:37 PM 46.4472 -108.4247 275° West 392 451 34,000  Level Salt Lake Center
Wed 08:26:39 PM 46.4564 -108.5786 275° West 388 447 34,000  Level Salt Lake Center
Wed 08:27:41 PM 46.4647 -108.7319 275° West 383 441 34,000  Level Salt Lake Center
Wed 08:28:43 PM 46.4739 -108.8828 275° West 382 440 34,000  Level Salt Lake Center
Wed 08:29:44 PM 46.4822 -109.0333 275° West 379 436 34,000  Level Salt Lake Center
Wed 08:30:46 PM 46.4858 -109.1842 272° West 379 436 34,000  Level Salt Lake Center
Wed 08:31:47 PM 46.4906 -109.3625 272° West 372 428 34,000  Level Salt Lake Center
Wed 08:32:49 PM 46.4933 -109.5153 272° West 379 436 34,000  Level Salt Lake Center
Wed 08:33:51 PM 46.4958 -109.6631 271° West 374 430 34,000  Level Salt Lake Center
Wed 08:34:53 PM 46.4997 -109.8103 272° West 369 425 34,000 -293 Level Salt Lake Center
Wed 08:35:54 PM 46.5017 -109.9594 271° West 370 426 33,400 -1,561 Descending Salt Lake Center
Wed 08:36:56 PM 46.5044 -110.1056 272° West 367 422 30,800 -2,419 Descending Salt Lake Center
Wed 08:37:58 PM 46.5058 -110.2472 271° West 357 411 28,400 -2,634 Descending Salt Lake Center
Wed 08:38:59 PM 46.5089 -110.4086 272° West 341 392 25,400 -2,634 Descending Salt Lake Center
Wed 08:40:01 PM 46.5103 -110.5439 271° West 336 387 23,000 -2,146 Descending Salt Lake Center
Wed 08:41:02 PM 46.5119 -110.6589 271° West 335 386 21,000 -2,146 Descending Salt Lake Center
Wed 08:42:04 PM 46.5153 -110.8169 272° West 332 382 18,600 -2,177 Descending Salt Lake Center
Wed 08:43:06 PM 46.5153 -110.9467 270° West 328 377 16,500 -1,742 Descending Salt Lake Center
Wed 08:44:08 PM 46.5172 -111.0747 271° West 322 371 15,000 -1,415 Descending Salt Lake Center
Wed 08:45:09 PM 46.5189 -111.1933 271° West 304 350 13,600 -1,377 Descending Salt Lake Center
Wed 08:47:00 PM 46.5228 -111.4668 285° West  Level FlightAware Approximate
Wed 08:54:00 PM 46.6000 -111.9667 North  Level FlightAware Approximate
Wed 08:55:00 PM 46.6068 -111.9827 North  Level Estimated
Wed 08:56:00 PM 46.6068 -111.9827 North  Level Estimated
Wed 08:57:00 PM 46.6068 -111.9827 North  Level Estimated

Login

Don't have an account? Register now (free) for customized features, flight alerts, and more!